createdAt,value
2017-05-04T00:01:59.684Z,10.00
2017-05-04T00:04:28.729Z,10.00
2017-05-04T00:06:57.099Z,10.00
2017-05-04T00:09:25.376Z,9.90
2017-05-04T00:11:53.679Z,9.80
2017-05-04T00:14:21.960Z,9.80
2017-05-04T00:16:50.312Z,9.90
2017-05-04T00:19:18.607Z,9.90
2017-05-04T00:21:46.887Z,9.90
2017-05-04T00:24:15.239Z,9.90
2017-05-04T00:26:43.615Z,9.90
2017-05-04T00:29:11.929Z,9.90
2017-05-04T00:31:40.281Z,9.80
2017-05-04T00:34:08.649Z,9.70
2017-05-04T00:36:36.933Z,9.70
2017-05-04T00:39:05.245Z,9.70
2017-05-04T00:41:34.703Z,9.60
2017-05-04T00:44:03.116Z,9.50
2017-05-04T00:46:31.421Z,9.60
2017-05-04T00:48:59.708Z,9.60
2017-05-04T00:51:28.022Z,9.50
2017-05-04T00:53:56.307Z,9.40
2017-05-04T00:56:24.691Z,9.50
2017-05-04T00:58:52.992Z,9.50
2017-05-04T01:01:22.020Z,9.50
2017-05-04T01:03:50.314Z,9.50
2017-05-04T01:06:18.599Z,9.50
2017-05-04T01:08:46.963Z,9.50
2017-05-04T01:11:15.241Z,9.40
2017-05-04T01:13:43.539Z,9.40
2017-05-04T01:21:39.478Z,9.40
2017-05-04T01:24:07.779Z,9.50
2017-05-04T01:26:36.056Z,9.50
2017-05-04T01:29:04.875Z,9.50
2017-05-04T01:31:33.155Z,9.40
2017-05-04T01:34:01.480Z,9.40
2017-05-04T01:36:30.372Z,9.50
2017-05-04T01:38:58.647Z,9.50
2017-05-04T01:41:26.967Z,9.50
2017-05-04T01:43:55.540Z,9.50
2017-05-04T01:46:24.579Z,9.40
2017-05-04T01:48:52.967Z,9.40
2017-05-04T01:51:21.292Z,9.30
2017-05-04T01:53:50.313Z,9.10
2017-05-04T01:56:18.867Z,9.20
2017-05-04T01:58:47.904Z,9.20
2017-05-04T02:01:16.197Z,9.20
2017-05-04T02:03:44.496Z,9.30
2017-05-04T02:06:12.779Z,9.30
2017-05-04T02:08:41.830Z,9.30
2017-05-04T02:11:10.209Z,9.30
2017-05-04T02:13:38.584Z,9.30
2017-05-04T02:16:06.879Z,9.40
2017-05-04T02:18:35.188Z,9.60
2017-05-04T02:21:04.236Z,9.60
2017-05-04T02:23:32.544Z,9.70
2017-05-04T02:26:00.823Z,9.70
2017-05-04T02:28:29.122Z,9.60
2017-05-04T02:30:57.400Z,9.60
2017-05-04T02:33:25.711Z,9.70
2017-05-04T02:35:54.093Z,9.70
2017-05-04T02:38:22.371Z,9.80
2017-05-04T02:40:50.749Z,9.80
2017-05-04T02:43:19.027Z,9.90
2017-05-04T02:45:47.326Z,9.90
2017-05-04T02:48:15.609Z,9.90
2017-05-04T02:50:43.920Z,10.00
2017-05-04T02:53:12.228Z,10.00
2017-05-04T02:55:40.536Z,10.00
2017-05-04T02:58:08.816Z,10.00
2017-05-04T03:00:37.162Z,10.00
2017-05-04T03:03:05.454Z,10.00
2017-05-04T03:05:33.735Z,10.00
2017-05-04T03:08:02.092Z,10.00
2017-05-04T03:10:30.375Z,10.10
2017-05-04T03:12:58.691Z,10.10
2017-05-04T03:15:27.720Z,10.10
2017-05-04T03:17:55.994Z,10.10
2017-05-04T03:20:24.303Z,10.10
2017-05-04T03:22:52.663Z,10.10
2017-05-04T03:25:20.967Z,10.00
2017-05-04T03:27:49.326Z,9.90
2017-05-04T03:30:17.639Z,9.90
2017-05-04T03:32:46.664Z,9.80
2017-05-04T03:35:15.307Z,9.90
2017-05-04T03:37:43.643Z,9.90
2017-05-04T03:40:11.933Z,9.90
2017-05-04T03:42:40.300Z,9.80
2017-05-04T03:45:08.683Z,9.70
2017-05-04T03:47:36.996Z,9.60
2017-05-04T03:50:06.020Z,9.60
2017-05-04T03:52:34.300Z,9.60
2017-05-04T03:55:02.603Z,9.60
2017-05-04T03:57:30.877Z,9.70
2017-05-04T03:59:59.186Z,9.70
2017-05-04T04:02:27.477Z,9.70
2017-05-04T04:04:56.499Z,9.70
2017-05-04T04:07:24.803Z,9.80
2017-05-04T04:09:53.583Z,9.80
2017-05-04T04:12:21.965Z,9.80
2017-05-04T04:14:50.243Z,9.80
2017-05-04T04:17:18.535Z,9.90
2017-05-04T04:19:46.895Z,9.70
2017-05-04T04:22:15.267Z,9.60
2017-05-04T04:24:43.579Z,9.60
2017-05-04T04:27:11.864Z,9.50
2017-05-04T04:29:40.888Z,9.60
2017-05-04T04:32:09.195Z,9.60
2017-05-04T04:34:37.471Z,9.80
2017-05-04T04:37:05.848Z,9.70
2017-05-04T04:39:34.128Z,9.80
2017-05-04T04:42:02.504Z,9.70
2017-05-04T04:44:30.803Z,9.60
2017-05-04T04:46:59.157Z,9.50
2017-05-04T04:49:27.484Z,9.50
2017-05-04T04:51:56.503Z,9.50
2017-05-04T04:54:24.782Z,9.40
2017-05-04T04:56:53.088Z,9.50
2017-05-04T04:59:21.368Z,9.50
2017-05-04T05:01:49.733Z,9.60
2017-05-04T05:04:18.112Z,9.50
2017-05-04T05:06:46.393Z,9.50
2017-05-04T05:09:14.716Z,9.60
2017-05-04T05:11:43.735Z,9.60
2017-05-04T05:14:12.053Z,9.70
2017-05-04T05:16:40.413Z,9.80
2017-05-04T05:19:08.699Z,9.80
2017-05-04T05:21:37.009Z,9.80
2017-05-04T05:24:06.044Z,9.90
2017-05-04T05:26:34.437Z,9.90
2017-05-04T05:29:02.815Z,9.90
2017-05-04T05:31:31.096Z,10.00
2017-05-04T05:33:59.464Z,10.00
2017-05-04T05:36:27.748Z,10.00
2017-05-04T05:38:56.373Z,10.10
2017-05-04T05:41:25.402Z,10.10
2017-05-04T05:43:53.687Z,10.20
2017-05-04T05:46:21.999Z,10.30
2017-05-04T05:48:50.351Z,10.30
2017-05-04T05:51:18.671Z,10.40
2017-05-04T05:53:47.695Z,10.40
2017-05-04T05:56:15.980Z,10.50
2017-05-04T05:58:44.283Z,10.50
2017-05-04T06:01:12.573Z,10.60
2017-05-04T06:03:40.896Z,10.70
2017-05-04T06:06:09.181Z,10.70
2017-05-04T06:08:37.476Z,10.70
2017-05-04T06:11:05.779Z,10.80
2017-05-04T06:13:34.537Z,10.80
2017-05-04T06:16:02.921Z,10.90
2017-05-04T06:18:31.212Z,10.90
2017-05-04T06:20:59.502Z,10.90
2017-05-04T06:23:27.809Z,11.00
2017-05-04T06:25:56.099Z,11.00
2017-05-04T06:28:24.409Z,11.10
2017-05-04T06:30:52.696Z,11.10
2017-05-04T06:33:20.988Z,11.00
2017-05-04T06:35:50.052Z,11.00
2017-05-04T06:38:18.332Z,10.90
2017-05-04T06:40:46.622Z,10.90
2017-05-04T06:43:14.986Z,11.00
2017-05-04T06:45:43.273Z,11.00
2017-05-04T06:48:11.587Z,11.00
2017-05-04T06:50:39.867Z,11.10
2017-05-04T06:53:08.153Z,11.10
2017-05-04T06:55:36.481Z,11.20
2017-05-04T06:58:04.767Z,11.20
2017-05-04T07:00:33.043Z,11.20
2017-05-04T07:03:01.372Z,11.20
2017-05-04T07:05:29.657Z,11.30
2017-05-04T07:07:57.962Z,11.20
2017-05-04T07:10:26.276Z,11.30
2017-05-04T07:12:54.566Z,11.40
2017-05-04T07:15:22.856Z,11.50
2017-05-04T07:17:51.162Z,11.60
2017-05-04T07:20:19.447Z,11.70
2017-05-04T07:22:47.759Z,11.80
2017-05-04T07:25:16.043Z,11.90
2017-05-04T07:27:44.332Z,11.90
2017-05-04T07:30:12.665Z,12.00
2017-05-04T07:32:41.691Z,12.20
2017-05-04T07:35:09.992Z,12.30
2017-05-04T07:37:38.370Z,12.40
2017-05-04T07:40:06.657Z,12.40
2017-05-04T07:42:34.977Z,12.60
2017-05-04T07:45:04.016Z,12.50
2017-05-04T07:47:32.306Z,12.40
2017-05-04T07:50:01.484Z,12.40
2017-05-04T07:52:29.768Z,12.40
2017-05-04T07:54:58.144Z,12.50
2017-05-04T07:57:26.481Z,12.60
2017-05-04T07:59:54.772Z,12.60
2017-05-04T08:02:23.063Z,12.80
2017-05-04T08:04:51.375Z,12.90
2017-05-04T08:07:19.656Z,13.00
2017-05-04T08:09:47.971Z,13.00
2017-05-04T08:12:16.266Z,13.10
2017-05-04T08:14:44.655Z,13.10
2017-05-04T08:17:13.035Z,13.20
2017-05-04T08:19:42.262Z,13.30
2017-05-04T08:22:10.599Z,13.30
2017-05-04T08:24:38.987Z,13.40
2017-05-04T08:27:07.272Z,13.40
2017-05-04T08:29:35.643Z,13.30
2017-05-04T08:32:03.929Z,13.30
2017-05-04T08:34:32.305Z,13.40
2017-05-04T08:37:00.588Z,13.50
2017-05-04T08:39:28.872Z,13.50
2017-05-04T08:41:57.187Z,13.50
2017-05-04T08:44:25.479Z,13.50
2017-05-04T08:46:53.880Z,13.50
2017-05-04T08:49:22.165Z,13.50
2017-05-04T08:51:50.455Z,13.40
2017-05-04T08:54:18.787Z,13.40
2017-05-04T08:56:47.075Z,13.50
2017-05-04T08:59:15.359Z,13.60
2017-05-04T09:01:43.683Z,13.70
2017-05-04T09:04:12.711Z,13.80
2017-05-04T09:06:40.998Z,13.90
2017-05-04T09:09:09.328Z,14.00
2017-05-04T09:11:38.376Z,14.00
2017-05-04T09:14:06.756Z,14.10
2017-05-04T09:16:35.735Z,14.20
2017-05-04T09:19:04.015Z,14.10
2017-05-04T09:21:32.299Z,14.20
2017-05-04T09:24:00.682Z,14.40
2017-05-04T09:26:29.329Z,14.40
2017-05-04T09:28:57.611Z,14.50
2017-05-04T09:31:25.949Z,14.60
2017-05-04T09:33:55.007Z,14.60
2017-05-04T09:36:23.384Z,14.70
2017-05-04T09:38:51.716Z,14.70
2017-05-04T09:41:20.008Z,14.90
2017-05-04T09:43:48.296Z,15.00
2017-05-04T09:46:16.625Z,15.00
2017-05-04T09:48:44.968Z,15.00
2017-05-04T09:51:13.252Z,14.80
2017-05-04T09:53:41.939Z,14.80
2017-05-04T09:56:10.843Z,14.70
2017-05-04T09:58:39.192Z,14.70
2017-05-04T10:01:07.580Z,14.70
2017-05-04T10:03:35.957Z,15.00
2017-05-04T10:06:04.287Z,15.10
2017-05-04T10:08:33.320Z,15.40
2017-05-04T10:11:02.483Z,15.90
2017-05-04T10:13:30.823Z,16.50
2017-05-04T10:15:59.111Z,17.30
2017-05-04T10:18:27.456Z,17.80
2017-05-04T10:20:55.829Z,18.20
2017-05-04T10:23:24.539Z,18.40
2017-05-04T10:25:52.820Z,18.40
2017-05-04T10:28:21.496Z,19.10
2017-05-04T10:30:49.771Z,19.00
2017-05-04T10:33:18.092Z,18.30
2017-05-04T10:35:46.380Z,18.70
2017-05-04T10:38:14.710Z,18.90
2017-05-04T10:40:43.062Z,19.20
2017-05-04T10:43:11.354Z,19.50
2017-05-04T10:45:39.687Z,18.90
2017-05-04T10:48:07.974Z,18.60
2017-05-04T10:50:36.263Z,18.40
2017-05-04T10:53:04.590Z,18.30
2017-05-04T10:55:33.612Z,18.40
2017-05-04T10:58:01.895Z,18.60
2017-05-04T11:00:30.231Z,18.80
2017-05-04T11:02:59.249Z,19.20
2017-05-04T11:05:27.533Z,19.10
2017-05-04T11:07:55.848Z,19.30
2017-05-04T11:10:24.219Z,19.80
2017-05-04T11:12:52.975Z,20.10
2017-05-04T11:15:21.372Z,19.80
2017-05-04T11:17:49.659Z,18.60
2017-05-04T11:20:17.947Z,17.90
2017-05-04T11:22:46.310Z,17.20
2017-05-04T11:25:14.600Z,16.60
2017-05-04T11:27:42.884Z,16.10
2017-05-04T11:30:11.211Z,15.80
2017-05-04T11:32:39.513Z,15.60
2017-05-04T11:35:07.795Z,15.30
2017-05-04T11:37:36.384Z,15.00
2017-05-04T11:40:04.740Z,14.80
2017-05-04T11:42:33.028Z,14.80
2017-05-04T11:45:01.359Z,14.80
2017-05-04T11:47:29.648Z,14.80
2017-05-04T11:49:57.928Z,14.80
2017-05-04T11:52:26.248Z,14.80
2017-05-04T11:54:54.531Z,14.80
2017-05-04T11:57:22.888Z,14.80
2017-05-04T11:59:51.203Z,14.80
2017-05-04T12:02:20.224Z,14.70
2017-05-04T12:04:48.508Z,14.70
2017-05-04T12:07:16.898Z,14.60
2017-05-04T12:09:45.181Z,14.60
2017-05-04T12:12:13.467Z,14.70
2017-05-04T12:14:41.860Z,14.60
2017-05-04T12:17:10.144Z,14.80
2017-05-04T12:19:38.434Z,14.90
2017-05-04T12:22:07.503Z,14.90
2017-05-04T12:24:35.785Z,14.80
2017-05-04T12:27:04.067Z,14.90
2017-05-04T12:29:32.408Z,14.90
2017-05-04T12:32:00.688Z,14.90
2017-05-04T12:34:28.974Z,14.80
2017-05-04T12:36:57.336Z,14.70
2017-05-04T12:39:25.623Z,14.70
2017-05-04T12:41:54.816Z,14.50
2017-05-04T12:44:23.188Z,14.30
2017-05-04T12:46:51.472Z,14.20
2017-05-04T12:49:20.670Z,14.10
2017-05-04T12:51:49.013Z,14.00
2017-05-04T12:54:17.664Z,13.90
2017-05-04T12:56:46.687Z,13.70
2017-05-04T12:59:15.023Z,13.70
2017-05-04T13:01:43.309Z,13.70
2017-05-04T13:04:11.591Z,13.80
2017-05-04T13:06:39.925Z,13.70
2017-05-04T13:09:08.215Z,13.70
2017-05-04T13:11:36.579Z,13.60
2017-05-04T13:14:04.962Z,13.60
2017-05-04T13:16:33.242Z,13.70
2017-05-04T13:19:01.527Z,13.70
2017-05-04T13:21:29.855Z,13.80
2017-05-04T13:23:58.143Z,13.80
2017-05-04T13:26:26.424Z,13.80
2017-05-04T13:28:54.813Z,13.90
2017-05-04T13:31:23.100Z,13.90
2017-05-04T13:33:51.387Z,13.90
2017-05-04T13:36:19.707Z,13.90
2017-05-04T13:38:48.128Z,14.00
2017-05-04T13:41:16.424Z,14.00
2017-05-04T13:43:44.880Z,13.90
2017-05-04T13:46:13.161Z,14.00
2017-05-04T13:48:41.446Z,14.00
2017-05-04T13:51:09.779Z,14.00
2017-05-04T13:53:38.519Z,14.00
2017-05-04T13:56:06.881Z,14.10
2017-05-04T13:58:35.195Z,14.00
2017-05-04T14:01:04.220Z,14.10
2017-05-04T14:03:32.507Z,14.10
2017-05-04T14:06:00.896Z,14.00
2017-05-04T14:08:29.179Z,14.10
2017-05-04T14:10:57.471Z,14.10
2017-05-04T14:13:25.788Z,14.00
2017-05-04T14:15:54.101Z,14.00
2017-05-04T14:18:22.422Z,14.00
2017-05-04T14:20:51.448Z,13.90
2017-05-04T14:23:19.731Z,13.90
2017-05-04T14:25:48.047Z,13.90
2017-05-04T14:28:16.327Z,14.00
2017-05-04T14:30:44.673Z,14.10
2017-05-04T14:33:12.961Z,14.10
2017-05-04T14:35:41.252Z,14.20
2017-05-04T14:38:09.587Z,14.20
2017-05-04T14:40:37.895Z,14.30
2017-05-04T14:43:06.184Z,14.40
2017-05-04T14:45:34.516Z,14.60
2017-05-04T14:48:02.803Z,14.80
2017-05-04T14:50:31.100Z,15.00
2017-05-04T14:52:59.567Z,15.10
2017-05-04T14:55:28.252Z,15.20
2017-05-04T14:57:56.571Z,15.20
2017-05-04T15:00:26.412Z,15.10
2017-05-04T15:02:54.703Z,15.30
2017-05-04T15:05:23.031Z,15.60
2017-05-04T15:07:51.320Z,15.90
2017-05-04T15:10:19.614Z,16.20
2017-05-04T15:12:47.943Z,16.50
2017-05-04T15:15:16.227Z,16.90
2017-05-04T15:17:44.579Z,17.70
2017-05-04T15:20:12.915Z,18.60
2017-05-04T15:22:41.201Z,19.40
2017-05-04T15:25:09.750Z,20.20
2017-05-04T15:27:38.814Z,20.90
2017-05-04T15:30:07.116Z,22.30
2017-05-04T15:32:36.283Z,22.50
2017-05-04T15:35:04.607Z,22.60
2017-05-04T15:37:33.643Z,22.10
2017-05-04T15:40:01.930Z,21.50
2017-05-04T15:42:30.244Z,21.50
2017-05-04T15:44:59.707Z,21.10
2017-05-04T15:47:28.035Z,20.90
2017-05-04T15:49:57.051Z,20.60
2017-05-04T15:52:25.341Z,20.10
2017-05-04T15:54:53.659Z,19.70
2017-05-04T15:57:21.939Z,19.20
2017-05-04T15:59:50.284Z,18.90
2017-05-04T16:02:18.665Z,18.40
2017-05-04T16:04:46.951Z,18.10
2017-05-04T16:07:15.308Z,17.70
2017-05-04T16:09:43.693Z,17.50
2017-05-04T16:12:11.978Z,17.40
2017-05-04T16:14:40.264Z,17.40
2017-05-04T16:17:08.580Z,17.40
2017-05-04T16:19:36.899Z,17.50
2017-05-04T16:22:05.231Z,17.70
2017-05-04T16:24:33.548Z,17.60
2017-05-04T16:27:01.924Z,17.50
2017-05-04T16:29:30.308Z,17.30
2017-05-04T16:31:58.686Z,17.00
2017-05-04T16:34:27.061Z,16.80
2017-05-04T16:36:55.391Z,16.60
2017-05-04T16:39:24.432Z,16.40
2017-05-04T16:41:52.707Z,16.20
2017-05-04T16:44:21.044Z,16.20
2017-05-04T16:46:49.323Z,16.10
2017-05-04T16:49:17.599Z,15.80
2017-05-04T16:51:45.931Z,15.70
2017-05-04T16:54:14.219Z,15.60
2017-05-04T16:56:42.495Z,15.50
2017-05-04T16:59:10.841Z,15.40
2017-05-04T17:01:39.116Z,15.40
2017-05-04T17:04:07.394Z,15.20
2017-05-04T17:06:35.708Z,15.20
2017-05-04T17:09:03.996Z,15.10
2017-05-04T17:11:33.048Z,15.10
2017-05-04T17:14:01.328Z,15.10
2017-05-04T17:16:29.603Z,15.10
2017-05-04T17:18:58.909Z,15.10
2017-05-04T17:21:27.187Z,15.00
2017-05-04T17:23:56.123Z,14.90
2017-05-04T17:26:24.444Z,14.80
2017-05-04T17:28:52.728Z,14.80
2017-05-04T17:31:21.007Z,14.80
2017-05-04T17:33:49.335Z,14.40
2017-05-04T17:36:17.617Z,14.00
2017-05-04T17:38:45.919Z,13.80
2017-05-04T17:41:14.245Z,13.50
2017-05-04T17:43:43.445Z,13.30
2017-05-04T17:46:12.463Z,13.10
2017-05-04T17:48:40.875Z,13.00
2017-05-04T17:51:09.240Z,12.90
2017-05-04T17:53:37.519Z,12.80
2017-05-04T17:56:05.855Z,12.60
2017-05-04T17:58:34.556Z,12.50
2017-05-04T18:01:02.835Z,12.50
2017-05-04T18:03:31.139Z,12.50
2017-05-04T18:05:59.424Z,12.40
2017-05-04T18:08:27.746Z,12.40
2017-05-04T18:10:56.031Z,12.40
2017-05-04T18:13:24.344Z,12.30
2017-05-04T18:15:52.689Z,12.30
2017-05-04T18:18:20.991Z,12.20
2017-05-04T18:20:49.364Z,12.20
2017-05-04T18:23:17.748Z,12.20
2017-05-04T18:25:46.031Z,12.00
2017-05-04T18:28:14.311Z,12.00
2017-05-04T18:30:42.624Z,12.00
2017-05-04T18:33:12.038Z,11.90
2017-05-04T18:35:40.355Z,12.00
2017-05-04T18:38:08.733Z,12.00
2017-05-04T18:40:37.019Z,12.10
2017-05-04T18:43:05.295Z,12.10
2017-05-04T18:45:33.603Z,12.10
2017-05-04T18:48:02.623Z,12.10
2017-05-04T18:50:30.907Z,12.10
2017-05-04T18:52:59.312Z,12.20
2017-05-04T18:55:27.596Z,12.10
2017-05-04T18:57:55.876Z,12.10
2017-05-04T19:00:24.203Z,12.10
2017-05-04T19:02:52.515Z,12.10
2017-05-04T19:05:20.791Z,12.10
2017-05-04T19:07:49.111Z,12.00
2017-05-04T19:10:18.161Z,12.00
2017-05-04T19:12:46.535Z,12.00
2017-05-04T19:15:14.864Z,12.10
2017-05-04T19:17:43.879Z,12.00
2017-05-04T19:20:12.151Z,12.00
2017-05-04T19:22:40.551Z,12.00
2017-05-04T19:25:08.937Z,11.90
2017-05-04T19:27:37.215Z,12.00
2017-05-04T19:30:05.560Z,11.90
2017-05-04T19:32:33.839Z,11.90
2017-05-04T19:35:02.555Z,11.90
2017-05-04T19:37:30.864Z,11.90
2017-05-04T19:39:59.147Z,11.90
2017-05-04T19:42:28.232Z,11.90
2017-05-04T19:44:56.510Z,12.00
2017-05-04T19:47:24.852Z,12.00
2017-05-04T19:49:53.178Z,12.00
2017-05-04T19:52:22.195Z,12.00
2017-05-04T19:54:50.504Z,12.00
2017-05-04T19:57:18.784Z,12.00
2017-05-04T19:59:47.155Z,12.00
2017-05-04T20:02:15.471Z,11.80
2017-05-04T20:04:44.495Z,11.80
2017-05-04T20:07:12.903Z,11.70
2017-05-04T20:09:41.203Z,11.60
2017-05-04T20:12:09.487Z,11.70
2017-05-04T20:14:37.936Z,11.60
2017-05-04T20:17:06.220Z,11.70
2017-05-04T20:19:34.499Z,11.60
2017-05-04T20:22:02.811Z,11.60
2017-05-04T20:24:31.851Z,11.50
2017-05-04T20:27:00.135Z,11.50
2017-05-04T20:29:28.509Z,11.50
2017-05-04T20:31:56.806Z,11.50
2017-05-04T20:34:25.083Z,11.50
2017-05-04T20:36:53.422Z,11.50
2017-05-04T20:39:21.699Z,11.50
2017-05-04T20:41:49.989Z,11.50
2017-05-04T20:44:18.307Z,11.50
2017-05-04T20:46:47.360Z,11.50
2017-05-04T20:49:15.692Z,11.50
2017-05-04T20:51:44.727Z,11.40
2017-05-04T20:54:13.012Z,11.40
2017-05-04T20:56:41.334Z,11.40
2017-05-04T20:59:10.359Z,11.40
2017-05-04T21:01:38.641Z,11.40
2017-05-04T21:04:07.045Z,11.40
2017-05-04T21:06:35.524Z,11.40
2017-05-04T21:09:03.839Z,11.40
2017-05-04T21:11:32.887Z,11.40
2017-05-04T21:14:01.178Z,11.40
2017-05-04T21:16:29.457Z,11.40
2017-05-04T21:18:57.752Z,11.40
2017-05-04T21:21:26.800Z,11.40
2017-05-04T21:23:55.103Z,11.40
2017-05-04T21:26:23.381Z,11.40
2017-05-04T21:28:51.684Z,11.40
2017-05-04T21:31:20.724Z,11.50
2017-05-04T21:33:49.007Z,11.40
2017-05-04T21:36:17.304Z,11.40
2017-05-04T21:38:46.371Z,11.40
2017-05-04T21:41:14.675Z,11.50
2017-05-04T21:43:42.956Z,11.40
2017-05-04T21:46:11.231Z,11.40
2017-05-04T21:48:39.519Z,11.40
2017-05-04T21:51:08.534Z,11.30
2017-05-04T21:53:36.844Z,11.40
2017-05-04T21:56:05.226Z,11.30
2017-05-04T21:58:33.523Z,11.20
2017-05-04T22:01:01.878Z,11.10
2017-05-04T22:03:30.147Z,11.00
2017-05-04T22:05:58.442Z,11.00
2017-05-04T22:08:27.483Z,11.00
2017-05-04T22:10:55.983Z,11.00
2017-05-04T22:13:24.276Z,11.00
2017-05-04T22:15:52.583Z,11.00
2017-05-04T22:18:20.882Z,11.10
2017-05-04T22:20:49.929Z,11.00
2017-05-04T22:23:18.220Z,11.00
2017-05-04T22:25:46.494Z,11.00
2017-05-04T22:28:14.859Z,10.90
2017-05-04T22:30:43.141Z,10.90
2017-05-04T22:33:11.431Z,11.00
2017-05-04T22:35:39.711Z,10.90
2017-05-04T22:38:08.070Z,11.00
2017-05-04T22:40:37.160Z,11.00
2017-05-04T22:43:05.448Z,11.00
2017-05-04T22:45:33.742Z,11.00
2017-05-04T22:48:02.084Z,11.00
2017-05-04T22:50:30.378Z,11.10
2017-05-04T22:52:58.813Z,11.10
2017-05-04T22:55:27.110Z,11.10
2017-05-04T22:57:55.393Z,11.10
2017-05-04T23:00:23.680Z,11.10
2017-05-04T23:02:52.050Z,11.10
2017-05-04T23:05:20.532Z,11.10
2017-05-04T23:07:48.904Z,11.10
2017-05-04T23:10:17.185Z,11.00
2017-05-04T23:12:45.555Z,11.00
2017-05-04T23:15:13.839Z,11.00
2017-05-04T23:17:42.155Z,11.00
2017-05-04T23:20:11.206Z,10.90
2017-05-04T23:22:39.485Z,10.90
2017-05-04T23:25:07.783Z,10.90
2017-05-04T23:27:36.068Z,10.90
2017-05-04T23:30:04.371Z,10.80
2017-05-04T23:32:32.792Z,10.60
2017-05-04T23:35:01.163Z,10.50
2017-05-04T23:37:29.438Z,10.50
2017-05-04T23:39:57.819Z,10.50
2017-05-04T23:42:26.120Z,10.50
2017-05-04T23:44:54.403Z,10.50
2017-05-04T23:47:22.703Z,10.60
2017-05-04T23:49:51.745Z,10.50
2017-05-04T23:52:20.123Z,10.50
2017-05-04T23:54:48.496Z,10.50
2017-05-04T23:57:16.795Z,10.60
2017-05-04T23:59:45.071Z,10.60
